createdAt,value
2023-02-02T00:01:14.860Z,2.58
2023-02-02T00:03:41.640Z,2.63
2023-02-02T00:06:08.544Z,2.60
2023-02-02T00:08:36.553Z,2.65
2023-02-02T00:11:03.548Z,2.71
2023-02-02T00:13:33.056Z,2.70
2023-02-02T00:16:08.537Z,2.74
2023-02-02T00:18:35.226Z,2.78
2023-02-02T00:21:01.953Z,2.83
2023-02-02T00:23:28.663Z,2.81
2023-02-02T00:25:55.318Z,2.82
2023-02-02T00:28:21.987Z,2.82
2023-02-02T00:30:48.671Z,2.81
2023-02-02T00:33:15.355Z,2.88
2023-02-02T00:35:42.454Z,2.93
2023-02-02T00:38:09.361Z,2.92
2023-02-02T00:40:36.030Z,2.88
2023-02-02T00:43:02.697Z,2.87
2023-02-02T00:45:29.549Z,2.86
2023-02-02T00:47:56.251Z,2.86
2023-02-02T00:50:23.077Z,2.81
2023-02-02T00:52:50.707Z,2.79
2023-02-02T00:55:17.818Z,2.79
2023-02-02T00:57:46.273Z,2.74
2023-02-02T01:00:18.483Z,2.80
2023-02-02T01:02:45.232Z,2.81
2023-02-02T01:05:12.439Z,2.79
2023-02-02T01:07:40.071Z,2.70
2023-02-02T01:10:09.038Z,2.72
2023-02-02T01:12:35.960Z,2.71
2023-02-02T01:15:03.240Z,2.71
2023-02-02T01:17:31.913Z,2.70
2023-02-02T01:19:59.115Z,2.64
2023-02-02T01:22:26.179Z,2.62
2023-02-02T01:24:52.880Z,2.61
2023-02-02T01:27:19.736Z,2.59
2023-02-02T01:29:46.632Z,2.57
2023-02-02T01:32:13.366Z,2.60
2023-02-02T01:34:42.006Z,2.61
2023-02-02T01:37:09.652Z,2.59
2023-02-02T01:39:36.959Z,2.57
2023-02-02T01:42:04.492Z,2.57
2023-02-02T01:45:01.132Z,2.61
2023-02-02T01:47:32.134Z,2.61
2023-02-02T01:49:58.974Z,2.58
2023-02-02T01:52:27.863Z,2.66
2023-02-02T01:54:59.054Z,2.64
2023-02-02T01:57:39.264Z,2.67
2023-02-02T02:00:09.330Z,2.67
2023-02-02T02:02:46.939Z,2.67
2023-02-02T02:05:19.102Z,2.63
2023-02-02T02:07:48.348Z,2.60
2023-02-02T02:10:17.706Z,2.61
2023-02-02T02:12:45.222Z,2.59
2023-02-02T02:15:30.603Z,2.60
2023-02-02T02:18:12.347Z,2.58
2023-02-02T02:21:28.942Z,2.57
2023-02-02T02:24:36.361Z,2.58
2023-02-02T02:27:21.126Z,2.61
2023-02-02T02:30:04.025Z,2.57
2023-02-02T02:32:42.803Z,2.58
2023-02-02T02:35:20.716Z,2.62
2023-02-02T02:37:55.062Z,2.67
2023-02-02T02:40:29.391Z,2.70
2023-02-02T02:42:59.307Z,2.74
2023-02-02T02:45:27.792Z,2.79
2023-02-02T02:47:56.107Z,2.75
2023-02-02T02:50:23.775Z,2.74
2023-02-02T02:53:02.354Z,2.73
2023-02-02T02:55:46.296Z,2.71
2023-02-02T02:58:19.151Z,2.73
2023-02-02T03:00:50.265Z,2.73
2023-02-02T03:03:23.854Z,2.77
2023-02-02T03:06:23.769Z,2.77
2023-02-02T03:09:16.002Z,2.74
2023-02-02T03:11:42.751Z,2.74
2023-02-02T03:14:09.922Z,2.70
2023-02-02T03:16:37.590Z,2.73
2023-02-02T03:19:05.094Z,2.70
2023-02-02T03:21:32.911Z,2.67
2023-02-02T03:23:59.866Z,2.59
2023-02-02T03:26:27.309Z,2.60
2023-02-02T03:28:55.831Z,2.54
2023-02-02T03:31:22.700Z,2.58
2023-02-02T03:33:49.372Z,2.55
2023-02-02T03:36:16.077Z,2.57
2023-02-02T03:38:42.854Z,2.57
2023-02-02T03:41:09.584Z,2.59
2023-02-02T03:43:36.363Z,2.62
2023-02-02T03:46:05.872Z,2.65
2023-02-02T03:48:35.814Z,2.71
2023-02-02T03:51:06.874Z,2.74
2023-02-02T03:53:33.603Z,2.77
2023-02-02T03:56:00.384Z,2.75
2023-02-02T03:58:27.089Z,2.82
2023-02-02T04:00:55.702Z,2.86
2023-02-02T04:03:22.372Z,2.88
2023-02-02T04:05:50.303Z,2.94
2023-02-02T04:08:17.074Z,2.95
2023-02-02T04:10:43.852Z,3.01
2023-02-02T04:13:17.022Z,3.00
2023-02-02T04:19:41.309Z,3.02
2023-02-02T04:22:15.349Z,3.00
2023-02-02T04:24:42.101Z,3.09
2023-02-02T04:27:18.469Z,3.12
2023-02-02T04:29:47.396Z,3.00
2023-02-02T04:32:33.311Z,3.00
2023-02-02T04:35:07.443Z,3.00
2023-02-02T04:37:34.183Z,2.95
2023-02-02T04:40:00.923Z,2.99
2023-02-02T04:42:32.057Z,2.92
2023-02-02T04:45:07.158Z,2.88
2023-02-02T04:47:33.960Z,2.91
2023-02-02T04:50:00.741Z,2.92
2023-02-02T04:52:28.987Z,2.95
2023-02-02T04:54:55.736Z,2.94
2023-02-02T04:57:22.501Z,2.96
2023-02-02T04:59:49.501Z,2.94
2023-02-02T05:02:16.287Z,2.93
2023-02-02T05:04:43.105Z,2.94
2023-02-02T05:07:09.869Z,2.93
2023-02-02T05:09:36.643Z,2.86
2023-02-02T05:12:03.719Z,2.92
2023-02-02T05:14:30.435Z,2.84
2023-02-02T05:16:57.215Z,2.85
2023-02-02T05:19:24.108Z,2.84
2023-02-02T05:21:51.504Z,2.87
2023-02-02T05:24:20.068Z,2.87
2023-02-02T05:26:46.914Z,2.86
2023-02-02T05:29:13.646Z,2.84
2023-02-02T05:31:40.408Z,2.81
2023-02-02T05:34:11.464Z,2.79
2023-02-02T05:36:38.249Z,2.80
2023-02-02T05:39:05.753Z,2.80
2023-02-02T05:41:35.760Z,2.74
2023-02-02T05:44:03.100Z,2.75
2023-02-02T05:46:30.132Z,2.74
2023-02-02T05:49:00.242Z,2.74
2023-02-02T05:51:32.726Z,2.73
2023-02-02T05:54:01.036Z,2.71
2023-02-02T05:56:28.084Z,2.70
2023-02-02T05:58:55.022Z,2.66
2023-02-02T06:01:22.324Z,2.69
2023-02-02T06:03:49.176Z,2.64
2023-02-02T06:06:16.172Z,2.62
2023-02-02T06:08:45.597Z,2.64
2023-02-02T06:11:20.187Z,2.62
2023-02-02T06:13:47.167Z,2.58
2023-02-02T06:16:14.112Z,2.57
2023-02-02T06:18:40.894Z,2.58
2023-02-02T06:21:07.953Z,2.60
2023-02-02T06:23:35.022Z,2.58
2023-02-02T06:26:03.659Z,2.57
2023-02-02T06:28:31.766Z,2.61
2023-02-02T06:31:04.860Z,2.63
2023-02-02T06:33:31.941Z,2.65
2023-02-02T06:36:00.921Z,2.63
2023-02-02T06:38:27.915Z,2.64
2023-02-02T06:40:54.841Z,2.68
2023-02-02T06:43:21.967Z,2.69
2023-02-02T06:45:48.770Z,2.72
2023-02-02T06:48:15.601Z,2.72
2023-02-02T06:50:42.386Z,2.72
2023-02-02T06:53:09.677Z,2.75
2023-02-02T06:55:36.522Z,2.79
2023-02-02T06:58:03.537Z,2.76
2023-02-02T07:00:30.617Z,2.80
2023-02-02T07:02:57.587Z,2.82
2023-02-02T07:05:25.145Z,2.80
2023-02-02T07:07:52.257Z,2.80
2023-02-02T07:11:10.549Z,2.82
2023-02-02T07:13:07.137Z,2.86
2023-02-02T07:15:34.656Z,2.86
2023-02-02T07:18:01.732Z,2.88
2023-02-02T07:20:28.631Z,2.91
2023-02-02T07:22:55.644Z,2.93
2023-02-02T07:25:25.152Z,2.94
2023-02-02T07:27:55.221Z,2.95
2023-02-02T07:30:22.474Z,2.94
2023-02-02T07:32:50.282Z,2.96
2023-02-02T07:35:17.659Z,2.95
2023-02-02T07:37:44.366Z,2.98
2023-02-02T07:40:11.823Z,2.96
2023-02-02T07:42:38.656Z,2.97
2023-02-02T07:45:26.984Z,2.98
2023-02-02T07:47:59.180Z,3.00
2023-02-02T07:50:27.163Z,3.00
2023-02-02T07:52:55.294Z,3.00
2023-02-02T07:55:22.166Z,3.03
2023-02-02T07:57:48.893Z,3.04
2023-02-02T08:00:16.173Z,3.03
2023-02-02T08:02:43.111Z,2.98
2023-02-02T08:05:10.169Z,2.96
2023-02-02T08:07:37.072Z,2.93
2023-02-02T08:10:04.064Z,2.92
2023-02-02T08:12:30.962Z,2.94
2023-02-02T08:14:59.216Z,2.88
2023-02-02T08:17:31.025Z,2.88
2023-02-02T08:19:58.101Z,2.92
2023-02-02T08:22:24.907Z,2.97
2023-02-02T08:24:51.770Z,3.00
2023-02-02T08:27:19.120Z,3.10
2023-02-02T08:29:46.242Z,3.16
2023-02-02T08:32:13.468Z,3.16
2023-02-02T08:34:41.097Z,3.20
2023-02-02T08:37:08.029Z,3.25
2023-02-02T08:39:34.737Z,3.22
2023-02-02T08:42:02.136Z,3.23
2023-02-02T08:44:59.359Z,3.14
2023-02-02T08:47:15.788Z,3.16
2023-02-02T08:49:42.731Z,3.07
2023-02-02T08:52:09.630Z,3.08
2023-02-02T08:54:36.449Z,3.10
2023-02-02T08:57:05.621Z,3.12
2023-02-02T08:59:32.311Z,3.12
2023-02-02T09:02:02.132Z,3.13
2023-02-02T09:04:28.978Z,3.11
2023-02-02T09:06:55.877Z,3.20
2023-02-02T09:09:22.580Z,3.21
2023-02-02T09:11:49.377Z,3.33
2023-02-02T09:14:16.159Z,3.37
2023-02-02T09:16:43.145Z,3.41
2023-02-02T09:19:11.253Z,3.46
2023-02-02T09:21:41.128Z,3.52
2023-02-02T09:24:09.768Z,3.51
2023-02-02T09:26:36.685Z,3.52
2023-02-02T09:29:05.694Z,3.55
2023-02-02T09:31:37.369Z,3.53
2023-02-02T09:34:06.678Z,3.55
2023-02-02T09:36:33.846Z,3.53
2023-02-02T09:39:00.669Z,3.53
2023-02-02T09:41:39.775Z,3.58
2023-02-02T09:44:46.348Z,3.57
2023-02-02T09:47:31.987Z,3.74
2023-02-02T09:50:18.704Z,3.86
2023-02-02T09:53:04.978Z,3.91
2023-02-02T09:55:38.754Z,3.93
2023-02-02T09:58:14.292Z,3.90
2023-02-02T10:00:51.136Z,3.88
2023-02-02T10:03:41.759Z,3.89
2023-02-02T10:06:30.236Z,3.92
2023-02-02T10:09:09.172Z,3.61
2023-02-02T10:11:45.825Z,2.99
2023-02-02T10:14:21.247Z,2.77
2023-02-02T10:16:49.824Z,2.73
2023-02-02T10:19:16.605Z,2.77
2023-02-02T10:21:49.224Z,2.77
2023-02-02T10:24:22.766Z,2.82
2023-02-02T10:26:53.871Z,2.87
2023-02-02T10:29:48.054Z,2.95
2023-02-02T10:32:26.057Z,3.04
2023-02-02T10:35:20.505Z,3.18
2023-02-02T10:38:10.255Z,3.19
2023-02-02T10:40:40.381Z,3.27
2023-02-02T10:43:47.975Z,3.34
2023-02-02T10:46:22.041Z,3.43
2023-02-02T10:48:49.478Z,3.49
2023-02-02T10:51:21.998Z,3.54
2023-02-02T10:53:52.271Z,3.60
2023-02-02T10:56:45.595Z,3.67
2023-02-02T10:59:27.692Z,3.73
2023-02-02T11:01:54.564Z,3.76
2023-02-02T11:04:40.635Z,3.82
2023-02-02T11:07:07.627Z,3.88
2023-02-02T11:09:40.605Z,3.95
2023-02-02T11:12:16.637Z,3.87
2023-02-02T11:14:55.659Z,3.70
2023-02-02T11:17:24.346Z,3.57
2023-02-02T11:19:51.934Z,3.63
2023-02-02T11:22:30.869Z,3.59
2023-02-02T11:25:01.723Z,3.49
2023-02-02T11:27:41.260Z,3.37
2023-02-02T11:30:27.618Z,3.25
2023-02-02T11:32:55.960Z,3.23
2023-02-02T11:35:29.764Z,3.15
2023-02-02T11:37:57.993Z,3.06
2023-02-02T11:40:44.481Z,2.96
2023-02-02T11:43:29.608Z,3.11
2023-02-02T11:46:02.669Z,3.34
2023-02-02T11:48:36.206Z,3.59
2023-02-02T11:51:04.590Z,3.95
2023-02-02T11:53:38.015Z,4.07
2023-02-02T11:56:24.053Z,4.01
2023-02-02T11:58:59.413Z,4.05
2023-02-02T12:01:44.067Z,3.94
2023-02-02T12:04:17.122Z,3.88
2023-02-02T12:06:44.302Z,3.86
2023-02-02T12:09:14.119Z,3.87
2023-02-02T12:11:57.110Z,3.89
2023-02-02T12:14:33.996Z,3.94
2023-02-02T12:17:09.151Z,4.09
2023-02-02T12:19:57.623Z,4.29
2023-02-02T12:22:40.164Z,4.34
2023-02-02T12:25:44.909Z,4.26
2023-02-02T12:28:22.167Z,4.35
2023-02-02T12:31:07.635Z,4.50
2023-02-02T12:33:59.900Z,4.63
2023-02-02T12:36:54.816Z,4.72
2023-02-02T12:39:24.125Z,4.79
2023-02-02T12:42:23.121Z,4.90
2023-02-02T12:45:27.177Z,5.04
2023-02-02T12:48:11.529Z,5.14
2023-02-02T12:50:47.219Z,5.27
2023-02-02T12:53:34.179Z,5.24
2023-02-02T12:56:23.494Z,5.20
2023-02-02T12:59:18.855Z,5.16
2023-02-02T13:01:55.113Z,5.15
2023-02-02T13:04:43.950Z,5.02
2023-02-02T13:07:32.427Z,5.20
2023-02-02T13:10:25.859Z,5.29
2023-02-02T13:12:55.943Z,5.35
2023-02-02T13:15:27.748Z,5.45
2023-02-02T13:17:57.542Z,5.48
2023-02-02T13:20:59.781Z,5.37
2023-02-02T13:23:54.216Z,5.42
2023-02-02T13:26:24.824Z,5.50
2023-02-02T13:29:00.543Z,5.61
2023-02-02T13:31:36.917Z,5.47
2023-02-02T13:34:20.491Z,5.50
2023-02-02T13:36:52.787Z,5.43
2023-02-02T13:39:36.985Z,5.36
2023-02-02T13:42:05.987Z,5.41
2023-02-02T13:44:35.786Z,5.43
2023-02-02T13:47:09.924Z,5.48
2023-02-02T13:49:51.104Z,5.64
2023-02-02T13:52:42.452Z,5.64
2023-02-02T13:55:21.399Z,5.67
2023-02-02T13:58:13.220Z,5.49
2023-02-02T14:00:47.879Z,5.42
2023-02-02T14:03:40.819Z,5.50
2023-02-02T14:06:17.009Z,5.53
2023-02-02T14:08:50.992Z,5.52
2023-02-02T14:11:24.194Z,5.34
2023-02-02T14:14:12.887Z,5.26
2023-02-02T14:16:39.613Z,5.08
2023-02-02T14:19:12.985Z,5.08
2023-02-02T14:21:39.725Z,4.99
2023-02-02T14:24:28.415Z,4.84
2023-02-02T14:26:56.358Z,4.87
2023-02-02T14:29:36.832Z,4.93
2023-02-02T14:32:07.057Z,4.90
2023-02-02T14:34:44.189Z,4.74
2023-02-02T14:37:29.922Z,4.46
2023-02-02T14:40:02.892Z,4.39
2023-02-02T14:43:06.964Z,4.41
2023-02-02T14:45:39.367Z,4.41
2023-02-02T14:48:06.185Z,4.29
2023-02-02T14:50:39.225Z,4.20
2023-02-02T14:53:13.216Z,4.12
2023-02-02T14:56:04.348Z,3.99
2023-02-02T14:58:46.056Z,3.93
2023-02-02T15:01:25.131Z,3.98
2023-02-02T15:03:55.188Z,3.76
2023-02-02T15:06:31.826Z,3.76
2023-02-02T15:09:20.566Z,3.76
2023-02-02T15:12:01.387Z,3.70
2023-02-02T15:14:50.848Z,3.64
2023-02-02T15:17:53.628Z,3.68
2023-02-02T15:20:36.429Z,3.63
2023-02-02T15:23:35.406Z,3.60
2023-02-02T15:26:25.067Z,3.49
2023-02-02T15:29:05.724Z,3.46
2023-02-02T15:31:36.043Z,3.48
2023-02-02T15:34:25.280Z,3.39
2023-02-02T15:36:54.916Z,3.42
2023-02-02T15:39:34.504Z,3.30
2023-02-02T15:42:24.217Z,3.16
2023-02-02T15:44:51.386Z,3.14
2023-02-02T15:47:20.800Z,3.14
2023-02-02T15:49:47.971Z,3.05
2023-02-02T15:52:25.730Z,3.06
2023-02-02T15:54:58.125Z,3.01
2023-02-02T15:57:34.101Z,2.88
2023-02-02T16:00:21.462Z,2.93
2023-02-02T16:02:51.386Z,2.86
2023-02-02T16:05:36.370Z,2.83
2023-02-02T16:08:06.520Z,2.77
2023-02-02T16:10:34.343Z,2.68
2023-02-02T16:13:01.788Z,2.66
2023-02-02T16:15:29.968Z,2.61
2023-02-02T16:18:05.772Z,2.58
2023-02-02T16:20:35.795Z,2.57
2023-02-02T16:23:04.900Z,2.47
2023-02-02T16:25:35.080Z,2.36
2023-02-02T16:28:03.532Z,2.29
2023-02-02T16:30:38.797Z,2.21
2023-02-02T16:33:28.457Z,2.20
2023-02-02T16:35:55.707Z,2.20
2023-02-02T16:38:37.479Z,2.25
2023-02-02T16:41:11.963Z,2.34
2023-02-02T16:43:42.813Z,2.28
2023-02-02T16:46:13.216Z,2.21
2023-02-02T16:48:59.850Z,2.29
2023-02-02T16:51:43.979Z,2.35
2023-02-02T16:54:19.789Z,2.34
2023-02-02T16:56:53.589Z,2.32
2023-02-02T16:59:38.028Z,2.22
2023-02-02T17:09:47.445Z,1.93
2023-02-02T17:16:21.600Z,1.94
2023-02-02T17:19:06.658Z,1.92
2023-02-02T17:21:42.563Z,1.88
2023-02-02T17:24:10.113Z,1.95
2023-02-02T17:26:37.944Z,1.89
2023-02-02T17:29:05.465Z,1.74
2023-02-02T17:31:32.387Z,1.73
2023-02-02T17:33:59.237Z,1.64
2023-02-02T17:36:26.064Z,1.65
2023-02-02T17:38:52.891Z,1.71
2023-02-02T17:41:19.746Z,1.72
2023-02-02T17:43:46.434Z,1.79
2023-02-02T17:46:13.578Z,1.79
2023-02-02T17:48:40.495Z,1.81
2023-02-02T17:51:15.445Z,1.78
2023-02-02T17:53:49.007Z,1.72
2023-02-02T17:56:20.857Z,1.66
2023-02-02T17:58:49.207Z,1.74
2023-02-02T18:01:18.796Z,1.74
2023-02-02T18:03:46.429Z,1.66
2023-02-02T18:06:16.759Z,1.47
2023-02-02T18:08:44.396Z,1.45
2023-02-02T18:11:15.454Z,1.37
2023-02-02T18:13:43.833Z,1.35
2023-02-02T18:16:25.332Z,1.23
2023-02-02T18:19:10.656Z,1.26
2023-02-02T18:21:40.318Z,1.31
2023-02-02T18:24:18.221Z,1.42
2023-02-02T18:26:45.031Z,1.41
2023-02-02T18:29:12.133Z,1.45
2023-02-02T18:31:53.111Z,1.47
2023-02-02T18:34:20.141Z,1.41
2023-02-02T18:39:44.523Z,1.34
2023-02-02T18:42:11.514Z,1.35
2023-02-02T18:44:54.763Z,1.32
2023-02-02T18:47:50.260Z,1.38
2023-02-02T18:50:23.294Z,1.36
2023-02-02T18:52:50.240Z,1.34
2023-02-02T18:55:35.997Z,1.32
2023-02-02T18:58:17.455Z,1.31
2023-02-02T19:00:45.498Z,1.52
2023-02-02T19:03:13.353Z,1.55
2023-02-02T19:06:03.163Z,1.68
2023-02-02T19:08:30.991Z,1.68
2023-02-02T19:11:00.598Z,1.66
2023-02-02T19:13:28.547Z,1.64
2023-02-02T19:15:55.802Z,1.52
2023-02-02T19:18:23.919Z,1.46
2023-02-02T19:20:52.749Z,1.47
2023-02-02T19:23:25.208Z,1.47
2023-02-02T19:25:56.611Z,1.44
2023-02-02T19:28:29.115Z,1.41
2023-02-02T19:30:58.611Z,1.42
2023-02-02T19:33:39.794Z,1.34
2023-02-02T19:36:14.250Z,1.24
2023-02-02T19:42:10.701Z,1.22
2023-02-02T19:47:48.783Z,1.29
2023-02-02T19:50:19.073Z,1.33
2023-02-02T19:53:01.884Z,1.28
2023-02-02T19:56:08.762Z,1.31
2023-02-02T19:58:52.153Z,1.26
2023-02-02T20:01:25.216Z,1.22
2023-02-02T20:03:53.552Z,1.21
2023-02-02T20:06:24.330Z,1.25
2023-02-02T20:08:51.790Z,1.24
2023-02-02T20:11:39.595Z,1.30
2023-02-02T20:14:32.334Z,1.28
2023-02-02T20:17:29.193Z,1.43
2023-02-02T20:19:56.547Z,1.50
2023-02-02T20:22:36.635Z,1.46
2023-02-02T20:25:10.358Z,1.53
2023-02-02T20:27:40.454Z,1.53
2023-02-02T20:30:31.033Z,1.61
2023-02-02T20:33:17.964Z,1.69
2023-02-02T20:35:48.035Z,1.70
2023-02-02T20:38:29.976Z,1.74
2023-02-02T20:41:00.567Z,1.80
2023-02-02T20:43:32.658Z,1.86
2023-02-02T20:46:00.998Z,1.82
2023-02-02T20:48:35.219Z,1.79
2023-02-02T20:51:05.646Z,1.71
2023-02-02T20:53:41.256Z,1.64
2023-02-02T20:56:11.963Z,1.48
2023-02-02T20:58:44.730Z,1.50
2023-02-02T21:01:35.661Z,1.41
2023-02-02T21:04:08.595Z,1.45
2023-02-02T21:07:13.253Z,1.54
2023-02-02T21:10:08.012Z,1.40
2023-02-02T21:12:43.906Z,1.42
2023-02-02T21:15:22.254Z,1.40
2023-02-02T21:17:54.494Z,1.38
2023-02-02T21:20:26.276Z,1.39
2023-02-02T21:23:07.054Z,1.37
2023-02-02T21:25:54.059Z,1.29
2023-02-02T21:28:23.492Z,1.27
2023-02-02T21:31:00.473Z,1.27
2023-02-02T21:33:27.512Z,1.28
2023-02-02T21:35:57.902Z,1.26
2023-02-02T21:38:28.515Z,1.24
2023-02-02T21:41:01.797Z,1.20
2023-02-02T21:43:28.549Z,1.14
2023-02-02T21:45:57.684Z,1.13
2023-02-02T21:48:35.464Z,1.14
2023-02-02T21:51:24.459Z,1.15
2023-02-02T21:53:51.931Z,1.15
2023-02-02T21:56:43.534Z,1.15
2023-02-02T21:59:17.081Z,1.11
2023-02-02T22:01:45.120Z,1.17
2023-02-02T22:04:25.107Z,1.20
2023-02-02T22:06:53.636Z,1.18
2023-02-02T22:09:26.400Z,1.19
2023-02-02T22:12:01.654Z,1.19
2023-02-02T22:14:39.622Z,1.17
2023-02-02T22:17:17.957Z,1.19
2023-02-02T22:19:45.140Z,1.17
2023-02-02T22:22:22.676Z,1.15
2023-02-02T22:24:59.664Z,1.13
2023-02-02T22:27:39.034Z,1.09
2023-02-02T22:30:36.850Z,1.06
2023-02-02T22:33:05.757Z,1.10
2023-02-02T22:35:33.568Z,1.12
2023-02-02T22:38:00.784Z,1.12
2023-02-02T22:40:27.989Z,1.12
2023-02-02T22:42:56.741Z,1.15
2023-02-02T22:45:23.846Z,1.17
2023-02-02T22:47:50.881Z,1.15
2023-02-02T22:50:24.040Z,1.17
2023-02-02T22:52:51.353Z,1.22
2023-02-02T22:55:18.822Z,1.19
2023-02-02T22:57:45.873Z,1.27
2023-02-02T23:00:16.510Z,1.32
2023-02-02T23:02:43.716Z,1.37
2023-02-02T23:05:13.000Z,1.41
2023-02-02T23:07:39.904Z,1.48
2023-02-02T23:10:07.859Z,1.52
2023-02-02T23:12:35.009Z,1.55
2023-02-02T23:15:02.314Z,1.50
2023-02-02T23:17:29.607Z,1.51
2023-02-02T23:19:56.633Z,1.60
2023-02-02T23:22:25.733Z,1.59
2023-02-02T23:24:58.576Z,1.67
2023-02-02T23:27:25.992Z,1.70
2023-02-02T23:29:56.322Z,1.72
2023-02-02T23:32:23.293Z,1.70
2023-02-02T23:34:50.095Z,1.79
2023-02-02T23:37:16.876Z,1.78
2023-02-02T23:39:43.621Z,1.76
2023-02-02T23:42:10.465Z,1.75
2023-02-02T23:44:37.547Z,1.71
2023-02-02T23:47:09.462Z,1.72
2023-02-02T23:49:37.225Z,1.71
2023-02-02T23:52:04.869Z,1.76
2023-02-02T23:54:31.949Z,1.76
2023-02-02T23:57:05.049Z,1.78
2023-02-02T23:59:32.365Z,1.82
